createdAt,value
2022-11-19T00:01:15.517Z,-1.21
2022-11-19T00:03:43.312Z,-1.14
2022-11-19T00:06:13.145Z,-1.11
2022-11-19T00:08:40.625Z,-1.59
2022-11-19T00:11:13.385Z,-1.18
2022-11-19T00:13:41.262Z,-1.12
2022-11-19T00:16:13.292Z,-1.15
2022-11-19T00:18:41.014Z,-1.17
2022-11-19T00:21:13.117Z,-1.24
2022-11-19T00:23:40.423Z,-1.37
2022-11-19T00:26:12.554Z,-1.33
2022-11-19T00:28:40.420Z,-1.69
2022-11-19T00:31:09.614Z,-1.26
2022-11-19T00:33:37.086Z,-1.28
2022-11-19T00:36:05.132Z,-1.25
2022-11-19T00:38:32.362Z,-1.27
2022-11-19T00:40:59.135Z,-1.29
2022-11-19T00:43:43.967Z,-1.32
2022-11-19T00:46:11.106Z,-1.64
2022-11-19T00:48:39.260Z,-1.34
2022-11-19T00:51:07.494Z,-1.39
2022-11-19T00:53:34.671Z,-1.41
2022-11-19T00:56:02.215Z,-1.44
2022-11-19T00:58:29.035Z,-1.44
2022-11-19T01:00:55.660Z,-1.45
2022-11-19T01:03:23.449Z,-1.49
2022-11-19T01:05:50.049Z,-1.51
2022-11-19T01:08:16.756Z,-1.46
2022-11-19T01:10:44.334Z,-1.59
2022-11-19T01:13:29.569Z,-1.49
2022-11-19T01:15:56.339Z,-1.42
2022-11-19T01:18:22.845Z,-1.40
2022-11-19T01:20:49.408Z,-1.84
2022-11-19T01:23:15.880Z,-1.58
2022-11-19T01:25:42.356Z,-1.50
2022-11-19T01:28:08.790Z,-1.47
2022-11-19T01:30:35.361Z,-1.93
2022-11-19T01:33:01.823Z,-1.75
2022-11-19T01:35:28.298Z,-1.56
2022-11-19T01:37:54.718Z,-1.64
2022-11-19T01:40:21.276Z,-1.63
2022-11-19T01:42:50.650Z,-1.59
2022-11-19T01:45:34.700Z,-1.61
2022-11-19T01:48:07.755Z,-1.67
2022-11-19T01:50:42.438Z,-1.80
2022-11-19T01:53:09.541Z,-2.23
2022-11-19T01:55:37.975Z,-2.06
2022-11-19T01:58:06.684Z,-1.71
2022-11-19T02:00:33.683Z,-1.73
2022-11-19T02:03:00.102Z,-1.76
2022-11-19T02:05:28.210Z,-2.03
2022-11-19T02:07:57.504Z,-1.74
2022-11-19T02:10:49.324Z,-1.87
2022-11-19T02:13:34.583Z,-2.25
2022-11-19T02:16:08.950Z,-2.56
2022-11-19T02:18:50.131Z,-1.81
2022-11-19T02:21:27.687Z,-1.77
2022-11-19T02:24:20.394Z,-1.77
2022-11-19T02:27:04.913Z,-1.82
2022-11-19T02:29:31.742Z,-1.92
2022-11-19T02:32:05.401Z,-1.91
2022-11-19T02:34:46.709Z,-1.87
2022-11-19T02:37:35.202Z,-1.88
2022-11-19T02:40:01.635Z,-2.07
2022-11-19T02:42:33.651Z,-2.03
2022-11-19T02:45:08.230Z,-2.00
2022-11-19T02:47:41.791Z,-2.02
2022-11-19T02:50:16.585Z,-2.00
2022-11-19T02:52:45.191Z,-2.03
2022-11-19T02:55:16.819Z,-2.04
2022-11-19T02:57:48.870Z,-2.16
2022-11-19T03:00:34.191Z,-2.08
2022-11-19T03:03:36.840Z,-2.12
2022-11-19T03:06:08.185Z,-2.11
2022-11-19T03:08:35.333Z,-2.06
2022-11-19T03:11:21.217Z,-2.07
2022-11-19T03:14:13.711Z,-2.28
2022-11-19T03:16:43.235Z,-2.17
2022-11-19T03:19:20.680Z,-2.48
2022-11-19T03:21:58.319Z,-2.09
2022-11-19T03:24:35.413Z,-2.09
2022-11-19T03:27:16.378Z,-2.06
2022-11-19T03:29:49.673Z,-2.18
2022-11-19T03:32:34.869Z,-2.18
2022-11-19T03:35:06.921Z,-2.22
2022-11-19T03:37:35.656Z,-3.07
2022-11-19T03:40:03.921Z,-2.12
2022-11-19T03:42:31.379Z,-2.12
2022-11-19T03:45:08.978Z,-2.04
2022-11-19T03:47:38.570Z,-2.10
2022-11-19T03:50:25.329Z,-2.12
2022-11-19T03:52:51.913Z,-2.11
2022-11-19T03:55:18.535Z,-2.24
2022-11-19T03:57:45.547Z,-2.18
2022-11-19T04:00:13.038Z,-2.19
2022-11-19T04:02:40.443Z,-2.46
2022-11-19T04:05:07.179Z,-2.15
2022-11-19T04:07:33.657Z,-2.31
2022-11-19T04:10:00.161Z,-2.11
2022-11-19T04:12:26.620Z,-2.40
2022-11-19T04:14:53.220Z,-2.06
2022-11-19T04:17:20.126Z,-3.01
2022-11-19T04:19:47.055Z,-2.24
2022-11-19T04:22:13.531Z,-2.03
2022-11-19T04:24:40.025Z,-2.07
2022-11-19T04:27:06.475Z,-2.01
2022-11-19T04:29:32.938Z,-2.62
2022-11-19T04:31:59.378Z,-2.00
2022-11-19T04:34:25.796Z,-2.38
2022-11-19T04:36:52.263Z,-2.19
2022-11-19T04:39:19.132Z,-2.12
2022-11-19T04:41:45.717Z,-2.75
2022-11-19T04:44:12.239Z,-2.31
2022-11-19T04:46:38.690Z,-2.35
2022-11-19T04:49:05.237Z,-1.97
2022-11-19T04:51:31.716Z,-2.27
2022-11-19T04:53:58.150Z,-2.11
2022-11-19T04:56:24.635Z,-1.77
2022-11-19T04:58:51.123Z,-2.40
2022-11-19T05:01:20.482Z,-1.75
2022-11-19T05:03:47.920Z,-1.79
2022-11-19T05:06:14.373Z,-1.89
2022-11-19T05:08:40.819Z,-1.87
2022-11-19T05:11:07.290Z,-1.91
2022-11-19T05:13:33.753Z,-1.88
2022-11-19T05:16:00.204Z,-3.27
2022-11-19T05:18:26.661Z,-1.91
2022-11-19T05:20:53.162Z,-2.82
2022-11-19T05:23:19.671Z,-1.78
2022-11-19T05:25:46.594Z,-2.15
2022-11-19T05:28:13.188Z,-2.58
2022-11-19T05:30:39.672Z,-1.74
2022-11-19T05:33:06.104Z,-1.96
2022-11-19T05:35:32.579Z,-1.48
2022-11-19T05:37:59.090Z,-1.78
2022-11-19T05:40:25.563Z,-1.34
2022-11-19T05:42:52.022Z,-1.28
2022-11-19T05:45:18.467Z,-1.67
2022-11-19T05:47:48.585Z,-1.03
2022-11-19T05:50:15.682Z,-1.43
2022-11-19T05:52:42.108Z,-1.14
2022-11-19T05:55:08.801Z,-0.86
2022-11-19T05:57:36.573Z,-0.75
2022-11-19T06:00:04.053Z,-0.67
2022-11-19T06:02:30.608Z,-0.57
2022-11-19T06:04:57.141Z,-0.93
2022-11-19T06:07:23.671Z,-0.96
2022-11-19T06:09:50.122Z,-0.82
2022-11-19T06:12:16.531Z,-0.79
2022-11-19T06:14:43.039Z,-0.79
2022-11-19T06:17:12.450Z,-1.11
2022-11-19T06:19:38.881Z,-0.70
2022-11-19T06:22:05.713Z,-0.67
2022-11-19T06:24:32.195Z,-0.68
2022-11-19T06:26:58.685Z,-0.72
2022-11-19T06:29:25.209Z,-0.49
2022-11-19T06:31:51.727Z,-0.46
2022-11-19T06:34:18.218Z,-0.30
2022-11-19T06:36:49.254Z,-0.38
2022-11-19T06:39:17.424Z,-0.25
2022-11-19T06:41:44.025Z,-0.33
2022-11-19T06:44:10.522Z,-0.49
2022-11-19T06:46:36.976Z,-0.56
2022-11-19T06:49:05.853Z,-0.70
2022-11-19T06:51:32.769Z,-0.92
2022-11-19T06:53:59.195Z,-0.84
2022-11-19T06:56:25.691Z,-1.01
2022-11-19T06:58:56.312Z,-0.91
2022-11-19T07:01:22.858Z,-0.88
2022-11-19T07:03:49.368Z,-0.93
2022-11-19T07:06:15.861Z,-0.85
2022-11-19T07:08:42.363Z,-0.79
2022-11-19T07:11:27.191Z,-1.07
2022-11-19T07:13:57.605Z,-0.77
2022-11-19T07:16:26.027Z,-0.76
2022-11-19T07:18:52.661Z,-1.19
2022-11-19T07:21:19.206Z,-1.02
2022-11-19T07:23:45.664Z,-0.74
2022-11-19T07:26:12.790Z,-1.35
2022-11-19T07:28:39.266Z,-0.80
2022-11-19T07:31:07.137Z,-0.67
2022-11-19T07:33:34.209Z,-0.88
2022-11-19T07:36:00.673Z,-0.53
2022-11-19T07:38:29.625Z,-0.70
2022-11-19T07:40:58.065Z,-0.57
2022-11-19T07:43:24.552Z,-0.40
2022-11-19T07:45:50.954Z,-0.30
2022-11-19T07:48:17.455Z,-0.27
2022-11-19T07:50:55.150Z,0.02
2022-11-19T07:53:22.827Z,-0.11
2022-11-19T07:55:49.371Z,0.31
2022-11-19T07:58:15.883Z,0.46
2022-11-19T08:00:42.438Z,0.27
2022-11-19T08:03:11.250Z,0.71
2022-11-19T08:05:39.281Z,0.79
2022-11-19T08:08:05.772Z,1.00
2022-11-19T08:10:32.204Z,1.17
2022-11-19T08:13:04.709Z,1.36
2022-11-19T08:15:33.261Z,1.51
2022-11-19T08:18:18.185Z,1.19
2022-11-19T08:20:46.268Z,1.77
2022-11-19T08:23:13.315Z,1.77
2022-11-19T08:25:43.317Z,1.91
2022-11-19T08:28:11.403Z,2.10
2022-11-19T08:30:40.962Z,2.19
2022-11-19T08:33:08.781Z,2.74
2022-11-19T08:35:35.310Z,3.03
2022-11-19T08:38:02.109Z,3.59
2022-11-19T08:40:28.542Z,4.55
2022-11-19T08:43:01.079Z,4.34
2022-11-19T08:45:33.862Z,4.93
2022-11-19T08:48:03.885Z,4.20
2022-11-19T08:50:31.808Z,4.94
2022-11-19T08:53:01.287Z,4.85
2022-11-19T08:55:29.885Z,5.25
2022-11-19T08:58:04.583Z,5.00
2022-11-19T09:00:32.703Z,5.29
2022-11-19T09:02:59.362Z,5.08
2022-11-19T09:05:26.002Z,5.27
2022-11-19T09:07:54.323Z,6.23
2022-11-19T09:10:20.769Z,6.93
2022-11-19T09:12:47.254Z,7.56
2022-11-19T09:15:13.720Z,6.78
2022-11-19T09:17:46.414Z,6.19
2022-11-19T09:20:13.405Z,5.80
2022-11-19T09:22:39.881Z,5.36
2022-11-19T09:25:08.901Z,5.31
2022-11-19T09:27:36.490Z,4.97
2022-11-19T09:30:04.270Z,4.77
2022-11-19T09:32:31.218Z,5.07
2022-11-19T09:34:57.616Z,5.69
2022-11-19T09:37:24.218Z,5.20
2022-11-19T09:39:50.654Z,5.76
2022-11-19T09:42:24.898Z,5.43
2022-11-19T09:45:16.269Z,6.34
2022-11-19T09:47:56.084Z,6.23
2022-11-19T09:50:25.219Z,6.49
2022-11-19T09:53:00.698Z,6.89
2022-11-19T09:55:42.434Z,6.36
2022-11-19T09:58:40.330Z,6.20
2022-11-19T10:01:07.063Z,6.09
2022-11-19T10:03:34.148Z,5.58
2022-11-19T10:06:49.666Z,5.86
2022-11-19T10:09:24.807Z,6.24
2022-11-19T10:12:07.130Z,6.39
2022-11-19T10:14:36.573Z,6.70
2022-11-19T10:17:09.630Z,7.19
2022-11-19T10:19:47.993Z,7.25
2022-11-19T10:22:54.266Z,7.27
2022-11-19T10:25:28.464Z,7.43
2022-11-19T10:28:13.415Z,7.26
2022-11-19T10:30:43.809Z,7.11
2022-11-19T10:33:16.576Z,7.12
2022-11-19T10:35:48.004Z,7.81
2022-11-19T10:38:38.188Z,7.65
2022-11-19T10:41:15.475Z,8.09
2022-11-19T10:43:52.129Z,7.81
2022-11-19T10:46:24.389Z,8.00
2022-11-19T10:48:56.429Z,7.92
2022-11-19T10:51:25.088Z,7.87
2022-11-19T10:53:54.303Z,7.95
2022-11-19T10:56:40.890Z,7.78
2022-11-19T10:59:19.056Z,7.50
2022-11-19T11:01:49.403Z,7.37
2022-11-19T11:04:21.787Z,7.73
2022-11-19T11:07:05.356Z,8.07
2022-11-19T11:09:37.885Z,8.84
2022-11-19T11:12:29.781Z,9.88
2022-11-19T11:15:07.715Z,10.00
2022-11-19T11:17:36.598Z,8.78
2022-11-19T11:20:13.805Z,8.78
2022-11-19T11:22:40.405Z,8.45
2022-11-19T11:25:28.173Z,8.53
2022-11-19T11:28:12.704Z,8.43
2022-11-19T11:31:01.756Z,9.17
2022-11-19T11:33:33.243Z,9.62
2022-11-19T11:36:05.441Z,9.82
2022-11-19T11:38:32.963Z,10.22
2022-11-19T11:44:05.791Z,10.22
2022-11-19T11:46:43.291Z,10.77
2022-11-19T11:49:22.773Z,10.72
2022-11-19T11:51:58.791Z,10.46
2022-11-19T11:54:25.225Z,10.11
2022-11-19T11:56:51.716Z,9.85
2022-11-19T11:59:31.052Z,9.28
2022-11-19T12:02:02.050Z,8.43
2022-11-19T12:04:29.077Z,8.29
2022-11-19T12:07:20.793Z,8.52
2022-11-19T12:10:03.589Z,8.41
2022-11-19T12:12:42.659Z,9.04
2022-11-19T12:15:09.042Z,10.16
2022-11-19T12:17:57.701Z,11.09
2022-11-19T12:20:44.557Z,12.09
2022-11-19T12:23:13.960Z,12.06
2022-11-19T12:26:04.531Z,10.90
2022-11-19T12:28:55.194Z,9.32
2022-11-19T12:31:40.406Z,9.09
2022-11-19T12:34:25.668Z,8.56
2022-11-19T12:37:20.758Z,7.82
2022-11-19T12:40:24.067Z,8.17
2022-11-19T12:42:56.575Z,8.11
2022-11-19T12:45:42.081Z,7.91
2022-11-19T12:48:23.599Z,7.64
2022-11-19T12:50:57.661Z,7.00
2022-11-19T12:53:34.362Z,7.11
2022-11-19T12:56:09.686Z,7.06
2022-11-19T12:59:05.540Z,6.71
2022-11-19T13:01:35.829Z,7.01
2022-11-19T13:04:20.700Z,7.54
2022-11-19T13:06:53.194Z,8.28
2022-11-19T13:09:32.822Z,8.67
2022-11-19T13:12:09.524Z,9.10
2022-11-19T13:14:53.380Z,9.03
2022-11-19T13:17:27.907Z,9.23
2022-11-19T13:20:00.796Z,9.24
2022-11-19T13:22:33.594Z,8.55
2022-11-19T13:25:05.470Z,8.62
2022-11-19T13:27:32.382Z,7.86
2022-11-19T13:30:03.272Z,8.17
2022-11-19T13:32:41.762Z,8.14
2022-11-19T13:35:37.876Z,8.03
2022-11-19T13:38:28.736Z,7.91
2022-11-19T13:41:07.273Z,7.44
2022-11-19T13:43:53.012Z,6.35
2022-11-19T13:46:24.831Z,7.18
2022-11-19T13:49:01.621Z,7.23
2022-11-19T13:51:32.378Z,7.51
2022-11-19T13:54:03.379Z,7.70
2022-11-19T13:56:47.318Z,7.70
2022-11-19T13:59:38.631Z,8.52
2022-11-19T14:02:31.095Z,8.46
2022-11-19T14:05:20.557Z,7.88
2022-11-19T14:08:17.798Z,8.06
2022-11-19T14:10:49.220Z,8.18
2022-11-19T14:13:15.587Z,8.02
2022-11-19T14:16:26.255Z,8.04
2022-11-19T14:19:17.826Z,7.87
2022-11-19T14:22:08.814Z,8.30
2022-11-19T14:24:53.629Z,8.22
2022-11-19T14:27:26.487Z,8.06
2022-11-19T14:29:54.646Z,7.75
2022-11-19T14:32:30.285Z,7.18
2022-11-19T14:35:02.954Z,7.04
2022-11-19T14:37:43.127Z,6.88
2022-11-19T14:40:12.555Z,6.70
2022-11-19T14:43:20.977Z,6.45
2022-11-19T14:46:05.596Z,6.42
2022-11-19T14:48:47.621Z,6.33
2022-11-19T14:51:17.998Z,6.27
2022-11-19T14:54:03.429Z,6.07
2022-11-19T14:56:31.914Z,5.96
2022-11-19T14:59:20.709Z,5.98
2022-11-19T15:02:10.398Z,5.86
2022-11-19T15:04:42.054Z,5.13
2022-11-19T15:07:12.122Z,5.66
2022-11-19T15:10:11.262Z,5.50
2022-11-19T15:12:43.761Z,5.48
2022-11-19T15:15:19.393Z,5.27
2022-11-19T15:18:02.327Z,5.13
2022-11-19T15:20:44.934Z,5.08
2022-11-19T15:23:31.578Z,4.79
2022-11-19T15:26:23.792Z,4.93
2022-11-19T15:29:13.417Z,4.71
2022-11-19T15:32:04.183Z,4.65
2022-11-19T15:35:09.880Z,4.72
2022-11-19T15:38:02.235Z,4.15
2022-11-19T15:40:31.179Z,4.10
2022-11-19T15:43:03.734Z,4.19
2022-11-19T15:45:37.138Z,3.73
2022-11-19T15:48:19.212Z,4.05
2022-11-19T15:50:47.041Z,3.60
2022-11-19T15:53:24.190Z,4.14
2022-11-19T15:56:07.441Z,4.01
2022-11-19T15:58:39.143Z,3.86
2022-11-19T16:01:08.817Z,3.92
2022-11-19T16:03:38.511Z,3.47
2022-11-19T16:06:20.846Z,3.84
2022-11-19T16:08:52.790Z,3.92
2022-11-19T16:11:40.434Z,3.24
2022-11-19T16:14:46.054Z,3.63
2022-11-19T16:17:43.445Z,3.78
2022-11-19T16:20:10.137Z,3.74
2022-11-19T16:22:55.095Z,3.84
2022-11-19T16:25:34.047Z,3.94
2022-11-19T16:28:05.898Z,3.95
2022-11-19T16:30:44.050Z,3.99
2022-11-19T16:33:19.618Z,3.63
2022-11-19T16:35:52.352Z,4.04
2022-11-19T16:38:26.939Z,3.94
2022-11-19T16:41:13.620Z,4.02
2022-11-19T16:43:43.761Z,3.70
2022-11-19T16:46:14.822Z,4.12
2022-11-19T16:48:50.232Z,3.89
2022-11-19T16:51:41.299Z,4.00
2022-11-19T16:54:10.554Z,3.70
2022-11-19T16:56:46.151Z,3.98
2022-11-19T16:59:23.765Z,3.82
2022-11-19T17:02:00.155Z,3.87
2022-11-19T17:04:31.326Z,3.85
2022-11-19T17:06:59.024Z,3.81
2022-11-19T17:09:44.647Z,3.64
2022-11-19T17:12:34.034Z,3.30
2022-11-19T17:15:02.351Z,3.56
2022-11-19T17:17:40.336Z,3.18
2022-11-19T17:20:29.485Z,3.40
2022-11-19T17:22:56.979Z,3.01
2022-11-19T17:25:24.179Z,3.05
2022-11-19T17:27:56.834Z,3.18
2022-11-19T17:30:24.801Z,2.63
2022-11-19T17:32:58.339Z,3.15
2022-11-19T17:35:44.163Z,3.27
2022-11-19T17:38:32.251Z,3.32
2022-11-19T17:41:05.067Z,3.33
2022-11-19T17:43:53.174Z,3.47
2022-11-19T17:46:20.365Z,3.54
2022-11-19T17:48:48.384Z,3.68
2022-11-19T17:51:18.061Z,3.82
2022-11-19T17:53:45.137Z,3.75
2022-11-19T17:56:30.377Z,3.84
2022-11-19T17:58:59.571Z,3.80
2022-11-19T18:01:26.162Z,3.41
2022-11-19T18:03:52.614Z,3.55
2022-11-19T18:06:19.186Z,3.79
2022-11-19T18:08:45.966Z,3.98
2022-11-19T18:11:18.418Z,3.85
2022-11-19T18:13:46.328Z,3.95
2022-11-19T18:16:18.723Z,3.91
2022-11-19T18:18:45.391Z,3.91
2022-11-19T18:21:13.772Z,3.95
2022-11-19T18:23:41.320Z,3.96
2022-11-19T18:26:12.053Z,3.58
2022-11-19T18:28:38.995Z,4.02
2022-11-19T18:31:07.052Z,4.10
2022-11-19T18:33:35.434Z,4.06
2022-11-19T18:36:01.875Z,4.03
2022-11-19T18:38:28.325Z,3.96
2022-11-19T18:40:54.922Z,4.08
2022-11-19T18:43:40.218Z,4.10
2022-11-19T18:46:06.782Z,3.40
2022-11-19T18:48:33.187Z,4.02
2022-11-19T18:50:59.611Z,3.88
2022-11-19T18:53:26.248Z,3.88
2022-11-19T18:55:52.731Z,3.85
2022-11-19T18:58:19.236Z,3.95
2022-11-19T19:00:45.697Z,3.72
2022-11-19T19:03:13.595Z,4.01
2022-11-19T19:05:40.385Z,3.95
2022-11-19T19:08:07.159Z,4.07
2022-11-19T19:10:34.275Z,4.08
2022-11-19T19:13:00.832Z,3.41
2022-11-19T19:15:27.435Z,3.92
2022-11-19T19:17:53.977Z,4.03
2022-11-19T19:20:20.447Z,3.96
2022-11-19T19:22:46.961Z,3.97
2022-11-19T19:25:13.426Z,3.95
2022-11-19T19:27:40.083Z,3.91
2022-11-19T19:30:07.129Z,3.64
2022-11-19T19:32:33.544Z,3.84
2022-11-19T19:35:00.035Z,3.80
2022-11-19T19:37:26.541Z,3.82
2022-11-19T19:39:53.406Z,3.46
2022-11-19T19:42:19.908Z,3.39
2022-11-19T19:44:49.421Z,3.80
2022-11-19T19:47:15.874Z,3.86
2022-11-19T19:49:42.610Z,3.97
2022-11-19T19:52:10.139Z,3.65
2022-11-19T19:54:36.581Z,3.68
2022-11-19T19:57:03.598Z,4.01
2022-11-19T19:59:30.074Z,3.61
2022-11-19T20:01:56.583Z,3.58
2022-11-19T20:04:23.077Z,3.87
2022-11-19T20:06:51.264Z,3.70
2022-11-19T20:09:17.838Z,3.38
2022-11-19T20:11:44.370Z,3.68
2022-11-19T20:14:10.948Z,3.06
2022-11-19T20:16:40.291Z,2.71
2022-11-19T20:19:07.601Z,3.76
2022-11-19T20:21:36.291Z,3.80
2022-11-19T20:24:08.716Z,3.78
2022-11-19T20:26:38.789Z,3.85
2022-11-19T20:29:06.536Z,3.56
2022-11-19T20:31:33.962Z,3.72
2022-11-19T20:34:02.942Z,3.27
2022-11-19T20:36:31.072Z,3.20
2022-11-19T20:38:57.919Z,3.27
2022-11-19T20:41:43.983Z,3.41
2022-11-19T20:44:21.664Z,3.50
2022-11-19T20:46:49.744Z,3.61
2022-11-19T20:49:17.641Z,3.24
2022-11-19T20:51:44.848Z,3.32
2022-11-19T20:54:12.234Z,3.47
2022-11-19T20:56:39.530Z,3.54
2022-11-19T20:59:06.586Z,3.51
2022-11-19T21:01:34.194Z,3.00
2022-11-19T21:04:00.927Z,3.18
2022-11-19T21:06:27.406Z,3.47
2022-11-19T21:08:53.900Z,3.45
2022-11-19T21:11:20.409Z,3.52
2022-11-19T21:13:46.822Z,3.57
2022-11-19T21:16:16.220Z,3.61
2022-11-19T21:18:43.389Z,3.63
2022-11-19T21:21:12.085Z,3.53
2022-11-19T21:23:39.974Z,3.54
2022-11-19T21:26:16.425Z,3.53
2022-11-19T21:28:47.877Z,3.25
2022-11-19T21:31:19.101Z,3.39
2022-11-19T21:33:46.144Z,3.02
2022-11-19T21:36:13.468Z,3.39
2022-11-19T21:38:40.142Z,3.38
2022-11-19T21:41:07.542Z,3.47
2022-11-19T21:43:34.040Z,3.35
2022-11-19T21:46:00.588Z,3.42
2022-11-19T21:48:27.327Z,3.34
2022-11-19T21:50:54.079Z,3.27
2022-11-19T21:53:21.099Z,3.47
2022-11-19T21:55:48.344Z,3.34
2022-11-19T21:58:15.615Z,3.29
2022-11-19T22:00:43.913Z,3.34
2022-11-19T22:03:10.566Z,3.44
2022-11-19T22:05:36.993Z,2.67
2022-11-19T22:08:03.801Z,2.96
2022-11-19T22:10:30.461Z,3.17
2022-11-19T22:13:00.078Z,3.32
2022-11-19T22:15:27.079Z,3.29
2022-11-19T22:17:54.049Z,3.31
2022-11-19T22:20:23.882Z,2.88
2022-11-19T22:22:50.366Z,3.16
2022-11-19T22:25:16.834Z,3.19
2022-11-19T22:27:43.423Z,3.28
2022-11-19T22:30:10.703Z,3.09
2022-11-19T22:32:37.254Z,3.42
2022-11-19T22:35:04.692Z,3.26
2022-11-19T22:37:31.247Z,3.30
2022-11-19T22:39:57.697Z,3.33
2022-11-19T22:42:24.196Z,3.40
2022-11-19T22:44:51.481Z,3.36
2022-11-19T22:47:17.983Z,2.90
2022-11-19T22:49:44.466Z,3.03
2022-11-19T22:52:10.873Z,3.41
2022-11-19T22:54:41.415Z,3.25
2022-11-19T22:57:08.435Z,3.42
2022-11-19T22:59:35.437Z,2.76
2022-11-19T23:02:01.918Z,3.45
2022-11-19T23:04:29.091Z,3.35
2022-11-19T23:06:55.776Z,3.45
2022-11-19T23:09:22.569Z,3.38
2022-11-19T23:12:08.046Z,2.78
2022-11-19T23:14:34.496Z,3.48
2022-11-19T23:17:00.968Z,3.05
2022-11-19T23:19:27.382Z,3.34
2022-11-19T23:21:53.845Z,3.23
2022-11-19T23:24:20.482Z,2.93
2022-11-19T23:26:46.971Z,3.37
2022-11-19T23:29:13.430Z,3.30
2022-11-19T23:31:40.948Z,3.19
2022-11-19T23:34:08.078Z,3.22
2022-11-19T23:36:37.596Z,3.53
2022-11-19T23:39:05.437Z,3.43
2022-11-19T23:41:33.736Z,2.91
2022-11-19T23:44:01.112Z,3.20
2022-11-19T23:46:30.240Z,2.69
2022-11-19T23:48:58.217Z,2.93
2022-11-19T23:51:27.447Z,3.20
2022-11-19T23:53:54.632Z,3.17
2022-11-19T23:56:23.216Z,3.24
2022-11-19T23:58:49.984Z,3.16
